Blue Marlin — 9HA4605 — position and weather

sailwx.info

Track history (hours):
 
Tides and Currents Weather Stations Pressure Air Temp Water Temp Dewpoint Dewpoint Depression Visibility Wind Speed Wind Dir Waves Ship Positions

Blue Marlin

Last reported at 2018-Jan-31 00:52 UTC. Time now 2018-Feb-24 21:58 UTC.
Position N 27°28' W 015°14'.
Warning: this ship's position is 24 days out of date.

Length 225 m; draft 10 m.

Type: Cargo ship. MMSI: 248314000.

Date/timePositionNaut miles runAvg speedWind from/ knotsBaromVisibWave heightAir tempDewpointWater temp
2018-Jan-31 00:52N 27°28' W 015°14'910.1
2018-Jan-31 00:00N 27°30' W 015°04'5 9.9
2018-Jan-30 23:29N 27°31' W 014°58'5 9.9
2018-Jan-30 22:59N 27°33' W 014°53'5 9.6
2018-Jan-30 22:29N 27°34' W 014°48'10 9.8
2018-Jan-30 21:29N 27°36' W 014°37'5 9.9
2018-Jan-30 20:57N 27°38' W 014°31'  
2018-Jan-21 05:18N 48°55' W 005°46'1 2.6
2018-Jan-21 04:58N 48°56' W 005°45'  
Track history (hours):
 
Tides and Currents Weather Stations Pressure Air Temp Water Temp Dewpoint Dewpoint Depression Visibility Wind Speed Wind Dir Waves Ship Positions

Blue Marlin

Last reported at 2018-Jan-31 00:52 UTC. Time now 2018-Feb-24 21:58 UTC.
Position N 27°28' W 015°14'.
Warning: this ship's position is 24 days out of date.

Length 225 m; draft 10 m.

Type: Cargo ship. MMSI: 248314000.

Date/timePositionNaut miles runAvg speedWind from/ knotsBaromVisibWave heightAir tempDewpointWater temp
2018-Jan-31 00:52N 27°28' W 015°14'910.1
2018-Jan-31 00:00N 27°30' W 015°04'5 9.9
2018-Jan-30 23:29N 27°31' W 014°58'5 9.9
2018-Jan-30 22:59N 27°33' W 014°53'5 9.6
2018-Jan-30 22:29N 27°34' W 014°48'10 9.8
2018-Jan-30 21:29N 27°36' W 014°37'5 9.9
2018-Jan-30 20:57N 27°38' W 014°31'  
2018-Jan-21 05:18N 48°55' W 005°46'1 2.6
2018-Jan-21 04:58N 48°56' W 005°45'  

Dump ship's entire track history